createdAt,value
2023-04-15T00:04:58.730Z,1.95
2023-04-15T00:10:02.484Z,1.50
2023-04-15T00:15:07.018Z,2.47
2023-04-15T00:20:10.735Z,6.30
2023-04-15T00:25:13.904Z,3.85
2023-04-15T00:30:18.877Z,1.52
2023-04-15T00:35:22.120Z,1.52
2023-04-15T00:40:26.842Z,2.05
2023-04-15T00:45:30.527Z,2.60
2023-04-15T00:50:33.933Z,2.03
2023-04-15T00:55:38.362Z,1.55
2023-04-15T01:00:42.307Z,1.67
2023-04-15T01:05:46.392Z,1.83
2023-04-15T01:10:49.447Z,2.15
2023-04-15T01:15:53.308Z,1.50
2023-04-15T01:20:56.795Z,1.85
2023-04-15T01:26:02.928Z,1.48
2023-04-15T01:31:11.074Z,2.28
2023-04-15T01:36:14.676Z,2.47
2023-04-15T01:41:17.637Z,1.42
2023-04-15T01:46:22.377Z,1.70
2023-04-15T01:51:27.622Z,1.55
2023-04-15T01:56:31.844Z,3.90
2023-04-15T02:01:36.145Z,2.10
2023-04-15T02:06:40.588Z,2.10
2023-04-15T02:11:45.282Z,1.70
2023-04-15T02:16:49.549Z,2.17
2023-04-15T02:21:53.746Z,2.17
2023-04-15T02:26:57.943Z,1.95
2023-04-15T02:32:02.239Z,1.88
2023-04-15T02:37:07.085Z,2.25
2023-04-15T02:42:13.770Z,3.85
2023-04-15T02:47:18.066Z,4.00
2023-04-15T02:52:22.282Z,2.10
2023-04-15T02:57:32.407Z,1.67
2023-04-15T03:02:43.362Z,1.55
2023-04-15T03:07:47.913Z,1.92
2023-04-15T03:12:52.427Z,1.92
2023-04-15T03:17:58.960Z,1.27
2023-04-15T03:23:03.253Z,2.30
2023-04-15T03:28:07.592Z,1.33
2023-04-15T03:33:11.804Z,1.45
2023-04-15T03:38:16.701Z,2.15
2023-04-15T03:43:21.611Z,2.25
2023-04-15T03:48:25.851Z,1.45
2023-04-15T03:53:30.047Z,2.08
2023-04-15T03:58:34.218Z,1.80
2023-04-15T04:03:38.451Z,1.27
2023-04-15T04:08:42.939Z,1.42
2023-04-15T04:13:47.057Z,1.30
2023-04-15T04:18:51.300Z,1.65
2023-04-15T04:23:57.055Z,1.80
2023-04-15T04:29:01.531Z,1.42
2023-04-15T04:34:06.448Z,1.20
2023-04-15T04:39:10.614Z,2.05
2023-04-15T04:44:14.818Z,2.65
2023-04-15T04:49:19.037Z,3.17
2023-04-15T04:54:23.965Z,1.52
2023-04-15T04:59:28.589Z,1.38
2023-04-15T05:04:32.824Z,2.60
2023-04-15T05:09:37.175Z,1.42
2023-04-15T05:14:44.447Z,1.40
2023-04-15T05:19:48.784Z,1.52
2023-04-15T05:24:52.969Z,1.50
2023-04-15T05:29:57.289Z,1.23
2023-04-15T05:35:01.892Z,1.35
2023-04-15T05:40:06.649Z,1.63
2023-04-15T05:45:11.339Z,1.23
2023-04-15T05:50:16.046Z,1.83
2023-04-15T05:55:20.258Z,1.45
2023-04-15T06:00:24.430Z,1.05
2023-04-15T06:05:28.614Z,1.67
2023-04-15T06:10:36.871Z,1.88
2023-04-15T06:15:41.560Z,2.03
2023-04-15T06:20:46.186Z,2.58
2023-04-15T06:25:50.429Z,2.50
2023-04-15T06:30:55.271Z,1.30
2023-04-15T06:35:59.413Z,0.80
2023-04-15T06:41:04.672Z,1.13
2023-04-15T06:46:08.949Z,2.33
2023-04-15T06:51:13.277Z,1.77
2023-04-15T06:56:17.481Z,1.20
2023-04-15T07:01:21.731Z,1.95
2023-04-15T07:06:26.360Z,1.00
2023-04-15T07:11:30.828Z,1.98
2023-04-15T07:16:35.087Z,2.25
2023-04-15T07:21:41.687Z,2.03
2023-04-15T07:26:46.222Z,2.03
2023-04-15T07:31:50.403Z,3.03
2023-04-15T07:36:54.722Z,2.30
2023-04-15T07:41:59.423Z,2.75
2023-04-15T07:47:04.555Z,1.33
2023-04-15T07:52:08.884Z,1.40
2023-04-15T07:57:13.426Z,1.35
2023-04-15T08:02:17.746Z,1.50
2023-04-15T08:07:21.972Z,2.30
2023-04-15T08:12:26.204Z,1.77
2023-04-15T08:17:30.441Z,2.00
2023-04-15T08:22:34.871Z,2.58
2023-04-15T08:27:39.076Z,1.67
2023-04-15T08:32:49.577Z,3.75
2023-04-15T08:37:53.730Z,1.70
2023-04-15T08:42:59.465Z,1.40
2023-04-15T08:48:06.118Z,2.20
2023-04-15T08:53:12.071Z,0.95
2023-04-15T08:58:16.661Z,1.98
2023-04-15T09:03:23.249Z,1.77
2023-04-15T09:08:27.532Z,1.25
2023-04-15T09:13:32.060Z,1.77
2023-04-15T09:18:39.304Z,2.05
2023-04-15T09:24:01.555Z,0.90
2023-04-15T09:29:10.899Z,1.48
2023-04-15T09:34:15.097Z,1.45
2023-04-15T09:39:19.312Z,1.73
2023-04-15T09:44:24.738Z,1.63
2023-04-15T09:49:29.189Z,1.58
2023-04-15T09:54:35.413Z,1.98
2023-04-15T09:59:40.145Z,1.25
2023-04-15T10:04:45.862Z,1.70
2023-04-15T10:09:53.767Z,1.63
2023-04-15T10:15:05.134Z,1.77
2023-04-15T10:20:10.985Z,1.63
2023-04-15T10:25:16.071Z,1.77
2023-04-15T10:30:21.195Z,1.33
2023-04-15T10:35:25.840Z,1.42
2023-04-15T10:40:33.494Z,1.15
2023-04-15T10:45:38.422Z,1.17
2023-04-15T10:50:57.406Z,1.42
2023-04-15T10:56:01.741Z,1.50
2023-04-15T11:01:06.044Z,1.55
2023-04-15T11:06:10.320Z,1.65
2023-04-15T11:11:14.587Z,1.23
2023-04-15T11:16:19.032Z,1.30
2023-04-15T11:21:26.629Z,1.58
2023-04-15T11:26:33.652Z,2.00
2023-04-15T11:31:38.006Z,1.90
2023-04-15T11:36:43.978Z,1.55
2023-04-15T11:41:48.163Z,1.52
2023-04-15T11:46:52.342Z,1.77
2023-04-15T11:51:56.699Z,1.70
2023-04-15T11:57:00.505Z,1.77
2023-04-15T12:02:13.235Z,1.38
2023-04-15T12:07:16.949Z,1.55
2023-04-15T12:12:19.973Z,1.15
2023-04-15T12:17:24.547Z,1.40
2023-04-15T12:22:27.598Z,1.42
2023-04-15T12:27:32.716Z,1.33
2023-04-15T12:32:36.816Z,1.55
2023-04-15T12:37:39.907Z,2.30
2023-04-15T12:42:42.845Z,1.45
2023-04-15T12:47:45.797Z,1.55
2023-04-15T12:52:48.781Z,1.83
2023-04-15T12:57:51.849Z,1.30
2023-04-15T13:02:55.051Z,0.82
2023-04-15T13:07:58.066Z,1.50
2023-04-15T13:13:01.076Z,1.67
2023-04-15T13:18:06.803Z,1.30
2023-04-15T13:23:10.168Z,1.30
2023-04-15T13:28:13.113Z,1.08
2023-04-15T13:33:17.969Z,1.52
2023-04-15T13:38:21.061Z,1.27
2023-04-15T13:43:24.050Z,1.70
2023-04-15T13:48:26.962Z,2.10
2023-04-15T13:53:38.513Z,1.33
2023-04-15T13:58:42.766Z,1.58
2023-04-15T14:03:46.021Z,1.58
2023-04-15T14:08:49.148Z,1.35
2023-04-15T14:13:52.122Z,1.38
2023-04-15T14:18:55.103Z,2.60
2023-04-15T14:23:58.166Z,1.60
2023-04-15T14:29:01.555Z,1.45
2023-04-15T14:34:04.567Z,1.42
2023-04-15T14:39:08.878Z,1.55
2023-04-15T14:44:12.176Z,1.30
2023-04-15T14:49:15.164Z,2.63
2023-04-15T14:54:18.517Z,2.88
2023-04-15T14:59:22.090Z,1.80
2023-04-15T15:04:25.200Z,1.30
2023-04-15T15:09:29.433Z,1.67
2023-04-15T15:14:32.354Z,1.08
2023-04-15T15:19:35.453Z,1.27
2023-04-15T15:24:38.516Z,1.17
2023-04-15T15:29:41.469Z,1.83
2023-04-15T15:34:44.458Z,1.10
2023-04-15T15:39:47.455Z,1.05
2023-04-15T15:44:50.572Z,0.82
2023-04-15T15:49:54.727Z,2.15
2023-04-15T15:54:57.705Z,1.77
2023-04-15T16:00:11.118Z,1.33
2023-04-15T16:05:16.161Z,0.85
2023-04-15T16:10:19.208Z,1.08
2023-04-15T16:15:26.764Z,1.40
2023-04-15T16:25:32.561Z,1.00
2023-04-15T16:30:37.305Z,0.98
2023-04-15T16:35:40.263Z,0.82
2023-04-15T16:40:43.173Z,1.83
2023-04-15T16:45:51.552Z,0.88
2023-04-15T16:50:54.881Z,1.33
2023-04-15T16:55:57.900Z,1.10
2023-04-15T17:01:01.530Z,1.08
2023-04-15T17:06:04.756Z,1.35
2023-04-15T17:11:07.902Z,0.98
2023-04-15T17:16:11.269Z,1.55
2023-04-15T17:21:21.827Z,0.98
2023-04-15T17:26:32.822Z,1.00
2023-04-15T17:31:40.086Z,1.38
2023-04-15T17:37:03.124Z,1.35
2023-04-15T17:42:26.686Z,1.20
2023-04-15T17:47:49.757Z,1.40
2023-04-15T17:53:12.756Z,1.92
2023-04-15T17:58:35.634Z,1.27
2023-04-15T18:03:58.592Z,0.93
2023-04-15T18:09:22.102Z,1.15
2023-04-15T18:14:45.037Z,1.30
2023-04-15T18:20:08.279Z,0.85
2023-04-15T18:25:14.155Z,1.20
2023-04-15T18:30:17.501Z,1.08
2023-04-15T18:35:21.080Z,1.30
2023-04-15T18:40:24.114Z,2.00
2023-04-15T18:45:27.302Z,1.90
2023-04-15T18:50:30.447Z,1.67
2023-04-15T18:55:33.487Z,1.52
2023-04-15T19:00:40.915Z,2.38
2023-04-15T19:05:44.237Z,1.80
2023-04-15T19:10:47.354Z,2.17
2023-04-15T19:15:50.319Z,1.55
2023-04-15T19:20:56.218Z,1.65
2023-04-15T19:25:59.274Z,2.42
2023-04-15T19:31:02.303Z,2.08
2023-04-15T19:36:06.821Z,1.88
2023-04-15T19:41:11.267Z,1.60
2023-04-15T19:46:14.199Z,1.85
2023-04-15T19:51:17.243Z,1.63
2023-04-15T19:56:21.041Z,1.83
2023-04-15T20:01:24.172Z,2.00
2023-04-15T20:06:27.834Z,2.35
2023-04-15T20:12:47.010Z,2.08
2023-04-15T20:16:53.874Z,1.60
2023-04-15T20:21:56.805Z,1.90
2023-04-15T20:26:59.755Z,1.83
2023-04-15T20:32:02.845Z,1.65
2023-04-15T20:37:06.087Z,2.67
2023-04-15T20:42:12.109Z,1.52
2023-04-15T20:47:15.084Z,1.73
2023-04-15T20:52:18.221Z,1.73
2023-04-15T20:57:21.347Z,1.77
2023-04-15T21:02:24.772Z,2.15
2023-04-15T21:07:27.934Z,1.77
2023-04-15T21:12:31.342Z,1.60
2023-04-15T21:17:35.677Z,1.40
2023-04-15T21:22:38.631Z,2.15
2023-04-15T21:27:41.749Z,1.08
2023-04-15T21:32:44.771Z,1.38
2023-04-15T21:37:47.750Z,1.80
2023-04-15T21:42:50.904Z,2.28
2023-04-15T21:48:05.535Z,1.83
2023-04-15T21:53:10.694Z,1.38
2023-04-15T21:58:13.625Z,1.90
2023-04-15T22:03:16.702Z,1.83
2023-04-15T22:08:19.685Z,1.70
2023-04-15T22:13:22.627Z,1.92
2023-04-15T22:18:25.748Z,2.40
2023-04-15T22:23:28.672Z,1.98
2023-04-15T22:28:31.625Z,4.10
2023-04-15T22:33:34.803Z,3.67
2023-04-15T22:38:37.893Z,4.65
2023-04-15T22:43:40.776Z,4.82
2023-04-15T22:48:43.818Z,6.70
2023-04-15T22:53:46.751Z,5.75
2023-04-15T22:58:50.679Z,4.63
2023-04-15T23:03:56.930Z,4.55
2023-04-15T23:09:07.394Z,4.57
2023-04-15T23:14:10.657Z,4.50
2023-04-15T23:19:13.644Z,4.63
2023-04-15T23:24:17.136Z,5.28
2023-04-15T23:29:20.045Z,4.75
2023-04-15T23:34:23.095Z,4.82
2023-04-15T23:39:26.195Z,5.75
2023-04-15T23:44:29.121Z,5.88
2023-04-15T23:49:32.034Z,4.60
2023-04-15T23:54:35.162Z,4.30
2023-04-15T23:59:38.130Z,4.63
